• Join FlightAware (Why Join?)
  • Login
  • US Flag 
02:30AM EDT


 

Airport Tracker/Info


-or-


 

Live Flight TrackerFlight Track Log ✈ N817BD ✈ 12-Mar-2014 ✈ KSTL - KIND

Flight Track Log - Related Links

Times and Time Zones

All times are in EDT time to prevent confusion due to time zone crossing. See the N817BD flight status page for this flight to view local times or setup timezone preferences in your user account.

Time Position Orientation Groundspeed Altitude Reporting Facility
EDT Latitude Longitude Course Direction KTS MPH feet Rate Location/Type
12:18PM 38.8167 -90.3833 360° North 164 189 6,000  Level Gateway (St. Louis) TRACON
12:20PM 38.9014 -90.3575 13° North 244 281 10,100 3,060 Climbing Kansas City Center
12:21PM 38.9025 -90.2478 89° East 327 376 13,700 3,720 Climbing Kansas City Center
12:22PM 38.8800 -90.1044 101° East 376 433 17,800 3,600 Climbing Kansas City Center
12:23PM 38.8397 -90.0156 72° East  Level Estimated
12:23PM 38.8611 -89.9675 100° East 404 465 21,200  Level Kansas City Center
12:24PM 38.8606 -89.7844 90° East 428 493 23,000 840 Climbing Kansas City Center
12:25PM 38.8756 -89.6336 83° East 427 491 23,000  Level Kansas City Center
12:26PM 38.8897 -89.4825 83° East 427 491 23,000  Level Kansas City Center
12:27PM 38.9044 -89.3331 83° East 426 490 23,000  Level Kansas City Center
12:28PM 38.9183 -89.1831 83° East 426 490 23,000  Level Kansas City Center
12:29PM 38.9317 -89.0342 83° East 423 487 23,000  Level Kansas City Center
12:30PM 38.9514 -88.8547 82° East 422 486 23,000  Level Kansas City Center
12:31PM 38.9650 -88.7056 83° East 422 486 23,000  Level Kansas City Center
12:32PM 38.9764 -88.5608 84° East 422 486 23,000  Level Kansas City Center
12:33PM 39.0072 -88.4108 75° East 429 494 23,000  Level Kansas City Center
12:34PM 39.0442 -88.2600 72° East 434 499 23,000  Level Kansas City Center
12:35PM 39.0881 -88.0808 72° East 434 499 23,000  Level Kansas City Center
12:37PM 39.1225 -87.9294 74° East 438 504 23,000  Level Indianapolis Center
12:38PM 39.1589 -87.7756 73° East 440 506 23,000  Level Indianapolis Center
12:39PM 39.1983 -87.6094 73° East 442 509 23,000 -1,260 Level Indianapolis Center
12:40PM 39.2331 -87.4617 73° East 439 505 20,500 -2,400 Descending Indianapolis Center
12:41PM 39.2636 -87.3250 74° East 408 470 18,200 -2,400 Descending Indianapolis Center
12:42PM 39.2950 -87.1933 73° East 392 451 15,700 -2,400 Descending Indianapolis Center
12:43PM 39.3253 -87.0603 74° East 391 450 13,300 -2,280 Descending Indianapolis Center
12:44PM 39.3533 -86.9347 74° East 373 429 11,100 -1,140 Descending Indianapolis Center
12:45PM 39.3803 -86.8181 73° East 349 402 11,000 -480 Descending Indianapolis Center
12:46PM 39.4303 -86.7322 53° Northeast 314 361 10,200 -1,320 Descending Indianapolis Center
12:47PM 39.4486 -86.6114 79° East 296 341 8,400 -1,680 Descending Indianapolis Center
12:48PM 39.4583 -86.5111 83° East 288 331 6,900 -1,500 Descending Indianapolis Center
12:49PM 39.4669 -86.4131 83° East 284 327 5,400 -1,320 Descending Indianapolis Center
12:50PM 39.4747 -86.3197 84° East 270 311 4,200 -720 Descending Indianapolis Center
12:51PM 39.5006 -86.2494 65° Northeast 236 272 4,000 -420 Descending Indianapolis Center
12:52PM 39.5233 -86.1886 64° Northeast 209 241 3,400 -540 Descending Indianapolis Center
12:53PM 39.5528 -86.1439 49° Northeast 193 222 3,000 -240 Descending Indianapolis Center
12:54PM 39.6031 -86.1294 12° North 175 201 3,000  Level Indianapolis Center
12:55PM 39.6383 -86.1642 323° Northwest 168 193 3,000 -240 Level Indianapolis Center
12:56PM 39.6594 -86.1903 316° Northwest 131 151 2,600 -480 Descending Indianapolis Center
12:57PM 39.6778 -86.2150 314° West 106 122 2,100 -600 Descending Indianapolis Center
12:58PM 39.6983 -86.2417 315° West 104 120 1,400 -660 Descending Indianapolis Center
12:59PM 39.7200 -86.2703 315° West 104 120 800 -600 Descending Indianapolis Center